sensor_id;sensor_type;location;lat;lon;timestamp;pressure;altitude;pressure_sealevel;temperature;humidity
44734;BME280;30462;52.446;-1.930;2022-09-12T00:00:18;99945.9375;;;;
44734;BME280;30462;52.446;-1.930;2022-09-12T00:01:18;99945.04297;;;;
44734;BME280;30462;52.446;-1.930;2022-09-12T00:02:17;99946.53516;;;;
44734;BME280;30462;52.446;-1.930;2022-09-12T00:03:18;99944.57813;;;;
44734;BME280;30462;52.446;-1.930;2022-09-12T00:04:18;99939.64063;;;;
44734;BME280;30462;52.446;-1.930;2022-09-12T00:05:18;99941.31641;;;;
44734;BME280;30462;52.446;-1.930;2022-09-12T00:06:19;99940.40625;;;;
44734;BME280;30462;52.446;-1.930;2022-09-12T00:07:17;99939.89063;;;;
44734;BME280;30462;52.446;-1.930;2022-09-12T00:08:18;99941.53516;;;;
44734;BME280;30462;52.446;-1.930;2022-09-12T00:09:18;99942.14844;;;;
44734;BME280;30462;52.446;-1.930;2022-09-12T00:10:18;99939.5625;;;;
44734;BME280;30462;52.446;-1.930;2022-09-12T00:11:18;99941.44531;;;;
44734;BME280;30462;52.446;-1.930;2022-09-12T00:12:18;99938.95313;;;;
44734;BME280;30462;52.446;-1.930;2022-09-12T00:13:17;99938.42969;;;;
44734;BME280;30462;52.446;-1.930;2022-09-12T00:14:18;99937.50391;;;;
44734;BME280;30462;52.446;-1.930;2022-09-12T00:15:18;99936.71875;;;;
44734;BME280;30462;52.446;-1.930;2022-09-12T00:16:20;99933.17578;;;;
44734;BME280;30462;52.446;-1.930;2022-09-12T00:17:18;99938.0625;;;;
44734;BME280;30462;52.446;-1.930;2022-09-12T00:18:18;99935.50781;;;;
44734;BME280;30462;52.446;-1.930;2022-09-12T00:19:18;99936.42188;;;;
44734;BME280;30462;52.446;-1.930;2022-09-12T00:20:18;99935.16406;;;;
44734;BME280;30462;52.446;-1.930;2022-09-12T00:21:18;99935.70703;;;;
44734;BME280;30462;52.446;-1.930;2022-09-12T00:22:18;99932.07813;;;;
44734;BME280;30462;52.446;-1.930;2022-09-12T00:23:17;99926.375;;;;
44734;BME280;30462;52.446;-1.930;2022-09-12T00:24:18;99926.85547;;;;
44734;BME280;30462;52.446;-1.930;2022-09-12T00:25:18;99924.50781;;;;
44734;BME280;30462;52.446;-1.930;2022-09-12T00:26:18;99927.71094;;;;
44734;BME280;30462;52.446;-1.930;2022-09-12T00:27:18;99923.0625;;;;
44734;BME280;30462;52.446;-1.930;2022-09-12T00:28:18;99919.75781;;;;
44734;BME280;30462;52.446;-1.930;2022-09-12T00:29:19;99924.89844;;;;
44734;BME280;30462;52.446;-1.930;2022-09-12T00:30:18;99916.90625;;;;
44734;BME280;30462;52.446;-1.930;2022-09-12T00:31:20;99913.95703;;;;
44734;BME280;30462;52.446;-1.930;2022-09-12T00:32:18;99911.39063;;;;
44734;BME280;30462;52.446;-1.930;2022-09-12T00:33:18;99916.55078;;;;
44734;BME280;30462;52.446;-1.930;2022-09-12T00:34:18;99918.86328;;;;
44734;BME280;30462;52.446;-1.930;2022-09-12T00:35:18;99920.10547;;;;
44734;BME280;30462;52.446;-1.930;2022-09-12T00:36:18;99921.24219;;;;
44734;BME280;30462;52.446;-1.930;2022-09-12T00:37:18;99919.80078;;;;
44734;BME280;30462;52.446;-1.930;2022-09-12T00:38:19;99917.55859;;;;
44734;BME280;30462;52.446;-1.930;2022-09-12T00:39:18;99913.00781;;;;
44734;BME280;30462;52.446;-1.930;2022-09-12T00:40:18;99911.96484;;;;
44734;BME280;30462;52.446;-1.930;2022-09-12T00:41:18;99906.55859;;;;
44734;BME280;30462;52.446;-1.930;2022-09-12T00:42:18;99907.37109;;;;
44734;BME280;30462;52.446;-1.930;2022-09-12T00:45:19;99900.28906;;;;
44734;BME280;30462;52.446;-1.930;2022-09-12T00:47:22;99904.97266;;;;
44734;BME280;30462;52.446;-1.930;2022-09-12T00:48:20;99900.5;;;;
44734;BME280;30462;52.446;-1.930;2022-09-12T00:49:22;99895.60547;;;;
44734;BME280;30462;52.446;-1.930;2022-09-12T00:50:18;99899.375;;;;
44734;BME280;30462;52.446;-1.930;2022-09-12T00:51:18;99896.60938;;;;
44734;BME280;30462;52.446;-1.930;2022-09-12T00:52:19;99896.98438;;;;
44734;BME280;30462;52.446;-1.930;2022-09-12T00:53:18;99894.17578;;;;
44734;BME280;30462;52.446;-1.930;2022-09-12T00:54:19;99892.03906;;;;
44734;BME280;30462;52.446;-1.930;2022-09-12T00:55:18;99890.70703;;;;
44734;BME280;30462;52.446;-1.930;2022-09-12T00:56:18;99893.69531;;;;
44734;BME280;30462;52.446;-1.930;2022-09-12T00:57:18;99894.22656;;;;
44734;BME280;30462;52.446;-1.930;2022-09-12T00:58:18;99893.1875;;;;
44734;BME280;30462;52.446;-1.930;2022-09-12T00:59:18;99896.64063;;;;
44734;BME280;30462;52.446;-1.930;2022-09-12T01:00:19;99893.9375;;;;
44734;BME280;30462;52.446;-1.930;2022-09-12T01:01:18;99890.88672;;;;
44734;BME280;30462;52.446;-1.930;2022-09-12T01:02:18;99891.46484;;;;
44734;BME280;30462;52.446;-1.930;2022-09-12T01:03:19;99895.29297;;;;
44734;BME280;30462;52.446;-1.930;2022-09-12T01:04:19;99895.88281;;;;
44734;BME280;30462;52.446;-1.930;2022-09-12T01:05:18;99896.26953;;;;
44734;BME280;30462;52.446;-1.930;2022-09-12T01:06:19;99894.69141;;;;
44734;BME280;30462;52.446;-1.930;2022-09-12T01:07:18;99886.02344;;;;
44734;BME280;30462;52.446;-1.930;2022-09-12T01:08:18;99888.93359;;;;
44734;BME280;30462;52.446;-1.930;2022-09-12T01:09:19;99887.375;;;;
44734;BME280;30462;52.446;-1.930;2022-09-12T01:10:18;99889.51172;;;;
44734;BME280;30462;52.446;-1.930;2022-09-12T01:11:18;99891.72656;;;;
44734;BME280;30462;52.446;-1.930;2022-09-12T01:12:18;99889.26172;;;;
44734;BME280;30462;52.446;-1.930;2022-09-12T01:13:18;99890.85156;;;;
44734;BME280;30462;52.446;-1.930;2022-09-12T01:14:18;99890.73828;;;;
44734;BME280;30462;52.446;-1.930;2022-09-12T01:15:18;99890.03906;;;;
44734;BME280;30462;52.446;-1.930;2022-09-12T01:16:18;99886.97266;;;;
44734;BME280;30462;52.446;-1.930;2022-09-12T01:17:18;99891.66016;;;;
44734;BME280;30462;52.446;-1.930;2022-09-12T01:18:23;99894.19922;;;;
44734;BME280;30462;52.446;-1.930;2022-09-12T01:21:21;99895.20703;;;;
44734;BME280;30462;52.446;-1.930;2022-09-12T01:23:25;99897.28125;;;;
44734;BME280;30462;52.446;-1.930;2022-09-12T01:25:22;99894.42969;;;;
44734;BME280;30462;52.446;-1.930;2022-09-12T01:30:20;99895.69141;;;;
44734;BME280;30462;52.446;-1.930;2022-09-12T01:31:19;99890.42969;;;;
44734;BME280;30462;52.446;-1.930;2022-09-12T01:32:22;99891.11328;;;;
44734;BME280;30462;52.446;-1.930;2022-09-12T01:34:19;99887.98828;;;;
44734;BME280;30462;52.446;-1.930;2022-09-12T01:35:22;99886.3125;;;;
44734;BME280;30462;52.446;-1.930;2022-09-12T01:36:25;99884.44141;;;;
44734;BME280;30462;52.446;-1.930;2022-09-12T01:37:22;99886.76953;;;;
44734;BME280;30462;52.446;-1.930;2022-09-12T01:38:21;99883.08984;;;;
44734;BME280;30462;52.446;-1.930;2022-09-12T01:39:24;99881.32813;;;;
44734;BME280;30462;52.446;-1.930;2022-09-12T01:40:19;99880.52734;;;;
44734;BME280;30462;52.446;-1.930;2022-09-12T01:41:20;99878.22656;;;;
44734;BME280;30462;52.446;-1.930;2022-09-12T01:42:22;99872.22266;;;;
44734;BME280;30462;52.446;-1.930;2022-09-12T01:43:21;99873.55078;;;;
44734;BME280;30462;52.446;-1.930;2022-09-12T01:44:20;99875.86719;;;;
44734;BME280;30462;52.446;-1.930;2022-09-12T01:45:19;99872.96875;;;;
44734;BME280;30462;52.446;-1.930;2022-09-12T01:46:18;99872.51563;;;;
44734;BME280;30462;52.446;-1.930;2022-09-12T01:47:20;99869.96094;;;;
44734;BME280;30462;52.446;-1.930;2022-09-12T01:48:19;99868.24609;;;;
44734;BME280;30462;52.446;-1.930;2022-09-12T01:49:22;99869.19922;;;;
44734;BME280;30462;52.446;-1.930;2022-09-12T01:50:18;99866.89844;;;;
44734;BME280;30462;52.446;-1.930;2022-09-12T01:51:20;99869.17969;;;;
44734;BME280;30462;52.446;-1.930;2022-09-12T01:52:23;99868.49609;;;;
44734;BME280;30462;52.446;-1.930;2022-09-12T01:53:19;99872.18359;;;;
44734;BME280;30462;52.446;-1.930;2022-09-12T01:54:19;99872.91016;;;;
44734;BME280;30462;52.446;-1.930;2022-09-12T01:55:22;99872.20313;;;;
44734;BME280;30462;52.446;-1.930;2022-09-12T01:56:20;99872.63281;;;;
44734;BME280;30462;52.446;-1.930;2022-09-12T01:57:21;99868.38672;;;;
44734;BME280;30462;52.446;-1.930;2022-09-12T01:58:19;99869.83594;;;;
44734;BME280;30462;52.446;-1.930;2022-09-12T01:59:20;99873.98828;;;;
44734;BME280;30462;52.446;-1.930;2022-09-12T02:00:18;99872.9375;;;;
44734;BME280;30462;52.446;-1.930;2022-09-12T02:01:19;99871.85938;;;;
44734;BME280;30462;52.446;-1.930;2022-09-12T02:02:19;99871.54688;;;;
44734;BME280;30462;52.446;-1.930;2022-09-12T02:03:19;99874.51172;;;;
44734;BME280;30462;52.446;-1.930;2022-09-12T02:04:18;99869.68359;;;;
44734;BME280;30462;52.446;-1.930;2022-09-12T02:05:24;99869.68359;;;;
44734;BME280;30462;52.446;-1.930;2022-09-12T02:06:19;99872.00781;;;;
44734;BME280;30462;52.446;-1.930;2022-09-12T02:07:19;99871.89453;;;;
44734;BME280;30462;52.446;-1.930;2022-09-12T02:08:19;99870.21875;;;;
44734;BME280;30462;52.446;-1.930;2022-09-12T02:09:20;99866.09375;;;;
44734;BME280;30462;52.446;-1.930;2022-09-12T02:10:19;99869.87109;;;;
44734;BME280;30462;52.446;-1.930;2022-09-12T02:11:18;99871.10938;;;;
44734;BME280;30462;52.446;-1.930;2022-09-12T02:12:19;99869.93359;;;;
44734;BME280;30462;52.446;-1.930;2022-09-12T02:13:20;99870.01953;;;;
44734;BME280;30462;52.446;-1.930;2022-09-12T02:14:19;99870.05859;;;;
44734;BME280;30462;52.446;-1.930;2022-09-12T02:15:18;99873.3125;;;;
44734;BME280;30462;52.446;-1.930;2022-09-12T02:16:21;99874.92969;;;;
44734;BME280;30462;52.446;-1.930;2022-09-12T02:17:19;99876.80078;;;;
44734;BME280;30462;52.446;-1.930;2022-09-12T02:18:18;99876.15234;;;;
44734;BME280;30462;52.446;-1.930;2022-09-12T02:19:19;99880.15625;;;;
44734;BME280;30462;52.446;-1.930;2022-09-12T02:20:21;99878.87891;;;;
44734;BME280;30462;52.446;-1.930;2022-09-12T02:21:19;99878.19531;;;;
44734;BME280;30462;52.446;-1.930;2022-09-12T02:22:19;99881.15625;;;;
44734;BME280;30462;52.446;-1.930;2022-09-12T02:23:19;99877.36719;;;;
44734;BME280;30462;52.446;-1.930;2022-09-12T02:24:18;99875.12891;;;;
44734;BME280;30462;52.446;-1.930;2022-09-12T02:25:18;99875.39844;;;;
44734;BME280;30462;52.446;-1.930;2022-09-12T02:26:18;99872.1875;;;;
44734;BME280;30462;52.446;-1.930;2022-09-12T02:27:19;99874.61328;;;;
44734;BME280;30462;52.446;-1.930;2022-09-12T02:28:20;99872.23047;;;;
44734;BME280;30462;52.446;-1.930;2022-09-12T02:29:18;99871.58203;;;;
44734;BME280;30462;52.446;-1.930;2022-09-12T02:30:18;99866.33594;;;;
44734;BME280;30462;52.446;-1.930;2022-09-12T02:31:20;99863.96875;;;;
44734;BME280;30462;52.446;-1.930;2022-09-12T02:32:23;99862.9375;;;;
44734;BME280;30462;52.446;-1.930;2022-09-12T02:33:19;99860.71875;;;;
44734;BME280;30462;52.446;-1.930;2022-09-12T02:34:25;99861.71094;;;;
44734;BME280;30462;52.446;-1.930;2022-09-12T02:35:22;99859.41797;;;;
44734;BME280;30462;52.446;-1.930;2022-09-12T02:36:26;99859.41797;;;;
44734;BME280;30462;52.446;-1.930;2022-09-12T02:37:22;99857.72656;;;;
44734;BME280;30462;52.446;-1.930;2022-09-12T02:38:19;99855.61328;;;;
44734;BME280;30462;52.446;-1.930;2022-09-12T02:39:18;99856.08594;;;;
44734;BME280;30462;52.446;-1.930;2022-09-12T02:40:18;99858.44922;;;;
44734;BME280;30462;52.446;-1.930;2022-09-12T02:41:19;99854.81641;;;;
44734;BME280;30462;52.446;-1.930;2022-09-12T02:42:18;99856.10938;;;;
44734;BME280;30462;52.446;-1.930;2022-09-12T02:43:17;99853.85938;;;;
44734;BME280;30462;52.446;-1.930;2022-09-12T02:44:18;99855.22266;;;;
44734;BME280;30462;52.446;-1.930;2022-09-12T02:45:18;99856.64453;;;;
44734;BME280;30462;52.446;-1.930;2022-09-12T02:46:20;99857.35156;;;;
44734;BME280;30462;52.446;-1.930;2022-09-12T02:47:19;99857.87109;;;;
44734;BME280;30462;52.446;-1.930;2022-09-12T02:48:19;99862.82422;;;;
44734;BME280;30462;52.446;-1.930;2022-09-12T02:49:18;99859.87891;;;;
44734;BME280;30462;52.446;-1.930;2022-09-12T02:50:18;99862.22656;;;;
44734;BME280;30462;52.446;-1.930;2022-09-12T02:51:18;99859.96484;;;;
44734;BME280;30462;52.446;-1.930;2022-09-12T02:52:18;99858.67969;;;;
44734;BME280;30462;52.446;-1.930;2022-09-12T02:53:18;99854.33203;;;;
44734;BME280;30462;52.446;-1.930;2022-09-12T02:54:18;99852.16016;;;;
44734;BME280;30462;52.446;-1.930;2022-09-12T02:55:18;99849.16016;;;;
44734;BME280;30462;52.446;-1.930;2022-09-12T02:56:20;99849.16016;;;;
44734;BME280;30462;52.446;-1.930;2022-09-12T02:57:19;99847.88672;;;;
44734;BME280;30462;52.446;-1.930;2022-09-12T02:58:19;99845.66797;;;;
44734;BME280;30462;52.446;-1.930;2022-09-12T02:59:18;99851.88672;;;;
44734;BME280;30462;52.446;-1.930;2022-09-12T03:00:18;99850.71875;;;;
44734;BME280;30462;52.446;-1.930;2022-09-12T03:01:25;99846.16797;;;;
44734;BME280;30462;52.446;-1.930;2022-09-12T03:05:20;99842.62891;;;;
44734;BME280;30462;52.446;-1.930;2022-09-12T03:06:24;99843.39453;;;;
44734;BME280;30462;52.446;-1.930;2022-09-12T03:07:25;99840.32422;;;;
44734;BME280;30462;52.446;-1.930;2022-09-12T03:09:21;99828.41016;;;;
44734;BME280;30462;52.446;-1.930;2022-09-12T03:10:19;99822.71484;;;;
44734;BME280;30462;52.446;-1.930;2022-09-12T03:12:25;99822.625;;;;
44734;BME280;30462;52.446;-1.930;2022-09-12T03:13:22;99815.59766;;;;
44734;BME280;30462;52.446;-1.930;2022-09-12T03:14:25;99811.34375;;;;
44734;BME280;30462;52.446;-1.930;2022-09-12T03:15:21;99809.01563;;;;
44734;BME280;30462;52.446;-1.930;2022-09-12T03:16:23;99811.10938;;;;
44734;BME280;30462;52.446;-1.930;2022-09-12T03:17:23;99808.17188;;;;
44734;BME280;30462;52.446;-1.930;2022-09-12T03:19:21;99803.20703;;;;
44734;BME280;30462;52.446;-1.930;2022-09-12T03:20:19;99809.59375;;;;
44734;BME280;30462;52.446;-1.930;2022-09-12T03:21:20;99800.53125;;;;
44734;BME280;30462;52.446;-1.930;2022-09-12T03:22:20;99802.70313;;;;
44734;BME280;30462;52.446;-1.930;2022-09-12T03:23:20;99802.78906;;;;
44734;BME280;30462;52.446;-1.930;2022-09-12T03:24:23;99802.03125;;;;
44734;BME280;30462;52.446;-1.930;2022-09-12T03:25:19;99801.46484;;;;
44734;BME280;30462;52.446;-1.930;2022-09-12T03:26:23;99801.23438;;;;
44734;BME280;30462;52.446;-1.930;2022-09-12T03:27:19;99799.23047;;;;
44734;BME280;30462;52.446;-1.930;2022-09-12T03:28:18;99801.46484;;;;
44734;BME280;30462;52.446;-1.930;2022-09-12T03:29:18;99798.43359;;;;
44734;BME280;30462;52.446;-1.930;2022-09-12T03:30:18;99794.85938;;;;
44734;BME280;30462;52.446;-1.930;2022-09-12T03:31:18;99794.67578;;;;
44734;BME280;30462;52.446;-1.930;2022-09-12T03:32:18;99791.07422;;;;
44734;BME280;30462;52.446;-1.930;2022-09-12T03:33:19;99788.94531;;;;
44734;BME280;30462;52.446;-1.930;2022-09-12T03:34:18;99789.67188;;;;
44734;BME280;30462;52.446;-1.930;2022-09-12T03:35:19;99786.76172;;;;
44734;BME280;30462;52.446;-1.930;2022-09-12T03:36:21;99789.78516;;;;
44734;BME280;30462;52.446;-1.930;2022-09-12T03:37:17;99786.67969;;;;
44734;BME280;30462;52.446;-1.930;2022-09-12T03:38:18;99788.13672;;;;
44734;BME280;30462;52.446;-1.930;2022-09-12T03:39:18;99785.30469;;;;
44734;BME280;30462;52.446;-1.930;2022-09-12T03:40:18;99784.86719;;;;
44734;BME280;30462;52.446;-1.930;2022-09-12T03:41:18;99786.23828;;;;
44734;BME280;30462;52.446;-1.930;2022-09-12T03:42:18;99785.36719;;;;
44734;BME280;30462;52.446;-1.930;2022-09-12T03:43:17;99782.60547;;;;
44734;BME280;30462;52.446;-1.930;2022-09-12T03:44:18;99782.50781;;;;
44734;BME280;30462;52.446;-1.930;2022-09-12T03:45:18;99776.48828;;;;
44734;BME280;30462;52.446;-1.930;2022-09-12T03:46:18;99772.93359;;;;
44734;BME280;30462;52.446;-1.930;2022-09-12T03:47:18;99770.75781;;;;
44734;BME280;30462;52.446;-1.930;2022-09-12T03:48:18;99771.29688;;;;
44734;BME280;30462;52.446;-1.930;2022-09-12T03:49:18;99772.19141;;;;
44734;BME280;30462;52.446;-1.930;2022-09-12T03:50:18;99769.5;;;;
44734;BME280;30462;52.446;-1.930;2022-09-12T03:51:18;99766.5625;;;;
44734;BME280;30462;52.446;-1.930;2022-09-12T03:52:18;99767.95313;;;;
44734;BME280;30462;52.446;-1.930;2022-09-12T03:53:18;99765.28125;;;;
44734;BME280;30462;52.446;-1.930;2022-09-12T03:54:18;99765.36328;;;;
44734;BME280;30462;52.446;-1.930;2022-09-12T03:55:17;99765.96875;;;;
44734;BME280;30462;52.446;-1.930;2022-09-12T03:56:18;99768.625;;;;
44734;BME280;30462;52.446;-1.930;2022-09-12T03:57:18;99766.65234;;;;
44734;BME280;30462;52.446;-1.930;2022-09-12T03:58:18;99767.77344;;;;
44734;BME280;30462;52.446;-1.930;2022-09-12T03:59:18;99768.41016;;;;
44734;BME280;30462;52.446;-1.930;2022-09-12T04:00:19;99766.76172;;;;
44734;BME280;30462;52.446;-1.930;2022-09-12T04:01:18;99767.21875;;;;
44734;BME280;30462;52.446;-1.930;2022-09-12T04:02:18;99765.89063;;;;
44734;BME280;30462;52.446;-1.930;2022-09-12T04:03:18;99765.25391;;;;
44734;BME280;30462;52.446;-1.930;2022-09-12T04:04:18;99763.64063;;;;
44734;BME280;30462;52.446;-1.930;2022-09-12T04:05:18;99765.79297;;;;
44734;BME280;30462;52.446;-1.930;2022-09-12T04:06:19;99762.51563;;;;
44734;BME280;30462;52.446;-1.930;2022-09-12T04:07:18;99761.79297;;;;
44734;BME280;30462;52.446;-1.930;2022-09-12T04:08:18;99759.44531;;;;
44734;BME280;30462;52.446;-1.930;2022-09-12T04:09:18;99760.52734;;;;
44734;BME280;30462;52.446;-1.930;2022-09-12T04:10:18;99759.24609;;;;
44734;BME280;30462;52.446;-1.930;2022-09-12T04:11:19;99758.12109;;;;
44734;BME280;30462;52.446;-1.930;2022-09-12T04:12:18;99759.82422;;;;
44734;BME280;30462;52.446;-1.930;2022-09-12T04:13:17;99756.38281;;;;
44734;BME280;30462;52.446;-1.930;2022-09-12T04:14:18;99752.61328;;;;
44734;BME280;30462;52.446;-1.930;2022-09-12T04:15:18;99758.07031;;;;
44734;BME280;30462;52.446;-1.930;2022-09-12T04:16:18;99760.89063;;;;
44734;BME280;30462;52.446;-1.930;2022-09-12T04:17:18;99752.5;;;;
44734;BME280;30462;52.446;-1.930;2022-09-12T04:18:18;99759.50391;;;;
44734;BME280;30462;52.446;-1.930;2022-09-12T04:19:18;99759.46875;;;;
44734;BME280;30462;52.446;-1.930;2022-09-12T04:20:18;99760.27734;;;;
44734;BME280;30462;52.446;-1.930;2022-09-12T04:21:18;99760.58984;;;;
44734;BME280;30462;52.446;-1.930;2022-09-12T04:22:18;99759.71875;;;;
44734;BME280;30462;52.446;-1.930;2022-09-12T04:23:18;99761.75391;;;;
44734;BME280;30462;52.446;-1.930;2022-09-12T04:24:18;99762.16406;;;;
44734;BME280;30462;52.446;-1.930;2022-09-12T04:25:18;99763.15625;;;;
44734;BME280;30462;52.446;-1.930;2022-09-12T04:26:18;99765.24219;;;;
44734;BME280;30462;52.446;-1.930;2022-09-12T04:27:18;99765.89844;;;;
44734;BME280;30462;52.446;-1.930;2022-09-12T04:28:18;99766.83594;;;;
44734;BME280;30462;52.446;-1.930;2022-09-12T04:29:18;99768.90625;;;;
44734;BME280;30462;52.446;-1.930;2022-09-12T04:30:18;99767.10547;;;;
44734;BME280;30462;52.446;-1.930;2022-09-12T04:31:18;99770.19531;;;;
44734;BME280;30462;52.446;-1.930;2022-09-12T04:32:18;99765.43359;;;;
44734;BME280;30462;52.446;-1.930;2022-09-12T04:33:18;99765.18359;;;;
44734;BME280;30462;52.446;-1.930;2022-09-12T04:34:18;99767.84375;;;;
44734;BME280;30462;52.446;-1.930;2022-09-12T04:35:18;99766.94922;;;;
44734;BME280;30462;52.446;-1.930;2022-09-12T04:36:18;99766.99609;;;;
44734;BME280;30462;52.446;-1.930;2022-09-12T04:37:18;99765.85547;;;;
44734;BME280;30462;52.446;-1.930;2022-09-12T04:38:18;99766.08594;;;;
44734;BME280;30462;52.446;-1.930;2022-09-12T04:39:18;99764.96484;;;;
44734;BME280;30462;52.446;-1.930;2022-09-12T04:40:18;99766.85547;;;;
44734;BME280;30462;52.446;-1.930;2022-09-12T04:41:19;99766.66797;;;;
44734;BME280;30462;52.446;-1.930;2022-09-12T04:42:18;99770.03125;;;;
44734;BME280;30462;52.446;-1.930;2022-09-12T04:43:18;99767.27734;;;;
44734;BME280;30462;52.446;-1.930;2022-09-12T04:44:18;99765.99219;;;;
44734;BME280;30462;52.446;-1.930;2022-09-12T04:45:18;99769.18359;;;;
44734;BME280;30462;52.446;-1.930;2022-09-12T04:46:18;99773.01953;;;;
44734;BME280;30462;52.446;-1.930;2022-09-12T04:47:17;99770.61719;;;;
44734;BME280;30462;52.446;-1.930;2022-09-12T04:48:18;99770.41406;;;;
44734;BME280;30462;52.446;-1.930;2022-09-12T04:49:18;99769.29688;;;;
44734;BME280;30462;52.446;-1.930;2022-09-12T04:50:18;99770.33594;;;;
44734;BME280;30462;52.446;-1.930;2022-09-12T04:51:19;99766.52344;;;;
44734;BME280;30462;52.446;-1.930;2022-09-12T04:52:18;99769.52734;;;;
44734;BME280;30462;52.446;-1.930;2022-09-12T04:53:18;99765.22266;;;;
44734;BME280;30462;52.446;-1.930;2022-09-12T04:54:18;99764.74609;;;;
44734;BME280;30462;52.446;-1.930;2022-09-12T04:55:18;99764.78516;;;;
44734;BME280;30462;52.446;-1.930;2022-09-12T04:56:18;99763.77344;;;;
44734;BME280;30462;52.446;-1.930;2022-09-12T04:57:18;99766.31641;;;;
44734;BME280;30462;52.446;-1.930;2022-09-12T04:58:18;99767.89063;;;;
44734;BME280;30462;52.446;-1.930;2022-09-12T04:59:19;99768.67969;;;;
44734;BME280;30462;52.446;-1.930;2022-09-12T05:00:18;99769.73828;;;;
44734;BME280;30462;52.446;-1.930;2022-09-12T05:01:18;99766.48828;;;;
44734;BME280;30462;52.446;-1.930;2022-09-12T05:02:18;99770.35547;;;;
44734;BME280;30462;52.446;-1.930;2022-09-12T05:03:18;99768.26953;;;;
44734;BME280;30462;52.446;-1.930;2022-09-12T05:04:18;99774.41797;;;;
44734;BME280;30462;52.446;-1.930;2022-09-12T05:05:18;99771.97656;;;;
44734;BME280;30462;52.446;-1.930;2022-09-12T05:06:18;99774.50391;;;;
44734;BME280;30462;52.446;-1.930;2022-09-12T05:07:18;99774.70703;;;;
44734;BME280;30462;52.446;-1.930;2022-09-12T05:08:18;99775.02734;;;;
44734;BME280;30462;52.446;-1.930;2022-09-12T05:09:18;99775.6875;;;;
44734;BME280;30462;52.446;-1.930;2022-09-12T05:10:18;99777.81641;;;;
44734;BME280;30462;52.446;-1.930;2022-09-12T05:11:19;99777.40234;;;;
44734;BME280;30462;52.446;-1.930;2022-09-12T05:12:17;99775.10547;;;;
44734;BME280;30462;52.446;-1.930;2022-09-12T05:13:18;99781.23047;;;;
44734;BME280;30462;52.446;-1.930;2022-09-12T05:14:18;99777.25391;;;;
44734;BME280;30462;52.446;-1.930;2022-09-12T05:15:18;99775.48047;;;;
44734;BME280;30462;52.446;-1.930;2022-09-12T05:16:18;99777.15234;;;;
44734;BME280;30462;52.446;-1.930;2022-09-12T05:17:18;99777.63281;;;;
44734;BME280;30462;52.446;-1.930;2022-09-12T05:18:18;99774.33594;;;;
44734;BME280;30462;52.446;-1.930;2022-09-12T05:19:18;99774.9375;;;;
44734;BME280;30462;52.446;-1.930;2022-09-12T05:20:18;99775.89063;;;;
44734;BME280;30462;52.446;-1.930;2022-09-12T05:21:18;99776.64063;;;;
44734;BME280;30462;52.446;-1.930;2022-09-12T05:22:18;99775.29297;;;;
44734;BME280;30462;52.446;-1.930;2022-09-12T05:23:18;99777.41016;;;;
44734;BME280;30462;52.446;-1.930;2022-09-12T05:24:18;99773.28906;;;;
44734;BME280;30462;52.446;-1.930;2022-09-12T05:25:18;99771.79297;;;;
44734;BME280;30462;52.446;-1.930;2022-09-12T05:26:18;99772.01953;;;;
44734;BME280;30462;52.446;-1.930;2022-09-12T05:27:18;99771.33594;;;;
44734;BME280;30462;52.446;-1.930;2022-09-12T05:28:18;99772.79297;;;;
44734;BME280;30462;52.446;-1.930;2022-09-12T05:29:18;99773.94531;;;;
44734;BME280;30462;52.446;-1.930;2022-09-12T05:30:18;99774.65625;;;;
44734;BME280;30462;52.446;-1.930;2022-09-12T05:31:18;99774.26172;;;;
44734;BME280;30462;52.446;-1.930;2022-09-12T05:32:18;99775.02734;;;;
44734;BME280;30462;52.446;-1.930;2022-09-12T05:33:18;99779.60156;;;;
44734;BME280;30462;52.446;-1.930;2022-09-12T05:34:18;99776.76563;;;;
44734;BME280;30462;52.446;-1.930;2022-09-12T05:35:18;99779.68359;;;;
44734;BME280;30462;52.446;-1.930;2022-09-12T05:36:18;99777.22266;;;;
44734;BME280;30462;52.446;-1.930;2022-09-12T05:37:18;99777.55078;;;;
44734;BME280;30462;52.446;-1.930;2022-09-12T05:38:18;99775.07031;;;;
44734;BME280;30462;52.446;-1.930;2022-09-12T05:39:18;99775.15625;;;;
44734;BME280;30462;52.446;-1.930;2022-09-12T05:40:18;99777.53125;;;;
44734;BME280;30462;52.446;-1.930;2022-09-12T05:41:21;99777.36328;;;;
44734;BME280;30462;52.446;-1.930;2022-09-12T05:42:18;99775.27734;;;;
44734;BME280;30462;52.446;-1.930;2022-09-12T05:43:18;99776.3125;;;;
44734;BME280;30462;52.446;-1.930;2022-09-12T05:44:18;99774.78125;;;;
44734;BME280;30462;52.446;-1.930;2022-09-12T05:45:18;99775.08594;;;;
44734;BME280;30462;52.446;-1.930;2022-09-12T05:46:18;99775.61719;;;;
44734;BME280;30462;52.446;-1.930;2022-09-12T05:47:18;99772;;;;
44734;BME280;30462;52.446;-1.930;2022-09-12T05:48:18;99771.39844;;;;
44734;BME280;30462;52.446;-1.930;2022-09-12T05:49:17;99771.44141;;;;
44734;BME280;30462;52.446;-1.930;2022-09-12T05:50:18;99772.97656;;;;
44734;BME280;30462;52.446;-1.930;2022-09-12T05:51:19;99777.42578;;;;
44734;BME280;30462;52.446;-1.930;2022-09-12T05:52:18;99777.66016;;;;
44734;BME280;30462;52.446;-1.930;2022-09-12T05:53:18;99781.71484;;;;
44734;BME280;30462;52.446;-1.930;2022-09-12T05:54:18;99781.84375;;;;
44734;BME280;30462;52.446;-1.930;2022-09-12T05:55:18;99783.5625;;;;
44734;BME280;30462;52.446;-1.930;2022-09-12T05:56:19;99779.87109;;;;
44734;BME280;30462;52.446;-1.930;2022-09-12T05:57:18;99784.11719;;;;
44734;BME280;30462;52.446;-1.930;2022-09-12T05:58:18;99781.71875;;;;
44734;BME280;30462;52.446;-1.930;2022-09-12T05:59:19;99784.88672;;;;
44734;BME280;30462;52.446;-1.930;2022-09-12T06:00:18;99787.49219;;;;
44734;BME280;30462;52.446;-1.930;2022-09-12T06:01:18;99784.63281;;;;
44734;BME280;30462;52.446;-1.930;2022-09-12T06:02:18;99782.71094;;;;
44734;BME280;30462;52.446;-1.930;2022-09-12T06:03:17;99782.17188;;;;